• Join FlightAware (Why Join?)
  • Login
  • US Flag 
07:04AM EDT


 

Airport Tracker/Info


-or-


 

Live Flight TrackerFlight Track Log ✈ AAL1326 ✈ 09.05.2013 ✈ KMCI - KORD

Flight Track Log - Related Links

Times and Time Zones

All times are in EDT time to prevent confusion due to time zone crossing. See the AAL1326 flight status page for this flight to view local times or setup timezone preferences in your user account.

Time Position Orientation Groundspeed Altitude Reporting Facility
EDT Latitude Longitude Course Direction KTS MPH feet Rate Location/Type
04:40PM 39.4030 -94.6140 113° Southeast 278 320 6,500  Level FlightAware
04:40PM 39.4100 -94.5990 59° Northeast 287 330 7,100 2,880 Climbing FlightAware
04:41PM 39.1656 -94.3800 113° Southeast  Level FlightAware Approximate
04:41PM 39.4140 -94.5780 76° East 295 339 7,700  Level FlightAware
04:41PM 39.3950 -94.5280 116° Southeast 299 344 9,400 2,700 Climbing FlightAware
04:42PM 39.3540 -94.4750 135° Southeast 335 386 10,900 2,520 Climbing FlightAware
04:42PM 39.3100 -94.4170 134° Southeast 353 406 12,800 3,000 Climbing FlightAware
04:43PM 39.2760 -94.3700 133° Southeast 360 414 14,400 2,040 Climbing FlightAware
04:44PM 39.2270 -94.3050 134° Southeast 374 430 15,200 1,260 Climbing FlightAware
04:44PM 39.2120 -94.2750 123° Southeast 387 445 15,600 2,220 Climbing FlightAware
04:44PM 39.1990 -94.2070 104° East 404 465 16,900 3,000 Climbing FlightAware
04:45PM 39.1850 -94.1120 101° East 402 463 19,100 2,940 Climbing FlightAware
04:46PM 39.1710 -94.0090 100° East 406 467 21,100 2,460 Climbing FlightAware
04:46PM 39.1580 -93.9110 100° East 415 478 22,600 2,160 Climbing FlightAware
04:47PM 39.1430 -93.7990 100° East 426 490 24,200 1,920 Climbing FlightAware
04:48PM 39.1290 -93.6980 100° East 436 502 25,400 1,860 Climbing FlightAware
04:49PM 39.1260 -93.5920 92° East 448 516 26,700 1,800 Climbing FlightAware
04:49PM 39.1260 -93.4740 90° East 454 522 28,000 1,620 Climbing FlightAware
04:50PM 39.1340 -93.3650 85° East 465 535 29,000 720 Climbing FlightAware
04:51PM 39.1610 -93.2600 72° East 468 539 29,000  Level FlightAware
04:51PM 39.1930 -93.1390 71° East 468 539 29,000  Level FlightAware
04:52PM 39.2230 -93.0230 72° East 468 539 29,000  Level FlightAware
04:53PM 39.2490 -92.9190 72° East 469 540 29,000  Level FlightAware
04:54PM 39.2820 -92.7940 71° East 471 542 29,000  Level FlightAware
04:54PM 39.3150 -92.6690 71° East 472 543 29,000  Level FlightAware
04:55PM 39.3390 -92.5790 71° East 472 543 29,000  Level FlightAware
04:56PM 39.3690 -92.4650 71° East 472 543 29,000  Level FlightAware
04:57PM 39.3930 -92.3740 71° East 472 543 29,000  Level FlightAware
04:57PM 39.4170 -92.2830 71° East 472 543 29,000 2,820 Level FlightAware
04:58PM 39.4610 -92.1030 72° East 463 533 33,000 2,820 Climbing FlightAware
04:59PM 39.5070 -92.0030 59° Northeast 467 537 33,000  Level FlightAware
04:59PM 39.5490 -91.9170 58° Northeast 467 537 33,000  Level FlightAware
05:00PM 39.6090 -91.7970 57° Northeast 468 539 33,000  Level FlightAware
05:01PM 39.6680 -91.6740 58° Northeast 470 541 33,000  Level FlightAware
05:02PM 39.7190 -91.5690 58° Northeast 471 542 33,000  Level FlightAware
05:02PM 39.7620 -91.4800 58° Northeast 470 541 33,000  Level FlightAware
05:03PM 39.8050 -91.3940 57° Northeast 470 541 33,000  Level FlightAware
05:04PM 39.8650 -91.2670 58° Northeast 468 539 33,000  Level FlightAware
05:04PM 39.9070 -91.1780 58° Northeast 468 539 33,000  Level FlightAware
05:05PM 39.9560 -91.0770 58° Northeast 467 537 33,000  Level FlightAware
05:06PM 40.0090 -90.9650 58° Northeast 467 537 33,000  Level FlightAware
05:07PM 40.0550 -90.8670 58° Northeast 468 539 33,000  Level FlightAware
05:07PM 40.1000 -90.7720 58° Northeast 469 540 33,000  Level FlightAware
05:08PM 40.1500 -90.6660 58° Northeast 469 540 33,000  Level FlightAware
05:09PM 40.2290 -90.5550 47° Northeast 467 537 33,000  Level FlightAware
05:10PM 40.2990 -90.4820 38° Northeast 466 536 33,000  Level FlightAware
05:10PM 40.3830 -90.3970 38° Northeast 464 534 33,000  Level FlightAware
05:11PM 40.4520 -90.3260 38° Northeast 464 534 33,000  Level FlightAware
05:12PM 40.5100 -90.2670 38° Northeast 463 533 33,000  Level FlightAware
05:12PM 40.5940 -90.1800 38° Northeast 462 532 33,000  Level FlightAware
05:13PM 40.6610 -90.1100 38° Northeast 460 529 33,000  Level FlightAware
05:14PM 40.7380 -90.0300 38° Northeast 459 528 33,000  Level FlightAware
05:15PM 40.8000 -89.9650 38° Northeast 457 526 33,000 -900 Level FlightAware
05:15PM 40.8560 -89.9070 38° Northeast 454 522 31,900 -2,520 Descending FlightAware
05:16PM 40.9360 -89.8240 38° Northeast 461 531 29,700 -3,000 Descending FlightAware
05:17PM 41.0040 -89.7520 39° Northeast 466 536 27,700 -2,700 Descending FlightAware
05:17PM 41.0780 -89.6740 38° Northeast 460 529 25,900 -2,280 Descending FlightAware
05:18PM 41.1390 -89.6090 39° Northeast 453 521 24,500 -2,280 Descending FlightAware
05:19PM 41.1960 -89.4980 56° Northeast 442 509 22,700 -2,220 Descending FlightAware
05:19PM 41.2380 -89.3950 62° Northeast 433 498 21,200 -2,100 Descending FlightAware
05:20PM 41.2750 -89.3010 62° Northeast 425 489 19,800 -2,040 Descending FlightAware
05:21PM 41.3120 -89.2110 61° Northeast 416 479 18,500 -2,100 Descending FlightAware
05:22PM 41.3530 -89.1090 62° Northeast 407 468 16,900 -1,980 Descending FlightAware
05:22PM 41.3880 -89.0220 62° Northeast 401 461 15,700 -1,860 Descending FlightAware
05:23PM 41.4250 -88.9280 62° Northeast 395 455 14,300 -1,920 Descending FlightAware
05:24PM 41.4590 -88.8420 62° Northeast 387 445 13,000 -1,920 Descending FlightAware
05:24PM 41.4920 -88.7580 62° Northeast 380 437 11,800 -1,440 Descending FlightAware
05:25PM 41.5300 -88.6630 62° Northeast 368 423 11,000 -600 Descending FlightAware
05:26PM 41.5610 -88.5840 62° Northeast 372 428 11,000  Level FlightAware
05:26PM 41.5970 -88.4940 62° Northeast 368 423 11,000  Level FlightAware
05:27PM 41.6370 -88.4190 54° Northeast 368 423 11,000  Level FlightAware
05:28PM 41.6840 -88.3390 52° Northeast 342 394 11,000 -180 Level FlightAware
05:29PM 41.7200 -88.2760 53° Northeast 307 353 10,800 -840 Descending FlightAware
05:29PM 41.7540 -88.2180 52° Northeast 300 345 9,900 -1,500 Descending FlightAware
05:30PM 41.7800 -88.1730 52° Northeast 300 345 9,100 -1,500 Descending FlightAware
05:30PM 41.8050 -88.1310 51° Northeast 302 348 8,400 -1,560 Descending FlightAware
05:31PM 41.8270 -88.0920 53° Northeast 304 350 7,700 -1,680 Descending FlightAware
05:31PM 41.8420 -88.0720 45° Northeast 306 352 7,300 -1,200 Descending FlightAware
05:31PM 41.8600 -88.0610 24° Northeast 305 351 7,100 -360 Descending FlightAware
05:32PM 41.9130 -88.0610 360° North 289 333 7,000 -120 Descending FlightAware
05:32PM 41.9520 -88.0620 359° North 264 304 7,000  Level FlightAware
05:33PM 41.9830 -88.0620 360° North 260 299 7,000 -180 Level FlightAware
05:33PM 41.9990 -88.0690 342° North 252 290 6,900 -960 Descending FlightAware
05:33PM 42.0270 -88.0960 324° Northwest 247 284 6,300 -900 Descending FlightAware
05:34PM 42.0500 -88.1180 325° Northwest 226 260 6,100 -540 Descending FlightAware
05:34PM 42.0570 -88.1250 323° Northwest 221 254 6,000 -840 Descending FlightAware
05:35PM 42.0870 -88.1540 324° Northwest 203 234 5,500 -840 Descending FlightAware
05:35PM 42.1060 -88.1690 330° Northwest 206 237 5,200 -1,020 Descending FlightAware
05:36PM 42.1320 -88.1550 22° Northeast 209 241 4,600 -1,200 Descending FlightAware
05:36PM 42.1420 -88.1400 48° Northeast 202 232 4,300 -1,200 Descending FlightAware
05:36PM 42.1440 -88.1290 76° East 195 224 4,100 -720 Descending FlightAware
05:36PM 42.1380 -88.1040 108° East 180 207 3,900 -540 Descending FlightAware
05:37PM 42.1260 -88.0860 132° Southeast 173 199 3,700 -720 Descending FlightAware
05:37PM 42.1110 -88.0690 140° Southeast 170 196 3,400 -900 Descending FlightAware
05:38PM 42.0930 -88.0490 140° Southeast 168 193 2,900 -900 Descending FlightAware
05:38PM 42.0750 -88.0290 140° Southeast 164 189 2,500 -600 Descending FlightAware
05:39PM 42.0610 -88.0130 140° Southeast 159 183 2,400 -480 Descending FlightAware
05:39PM 42.0440 -87.9930 139° Southeast 151 174 2,100 -660 Descending FlightAware
05:39PM 42.0320 -87.9800 141° Southeast 143 165 1,800 -780 Descending FlightAware
05:40PM 42.0160 -87.9620 140° Southeast 144 166 1,400 -720 Descending FlightAware
05:40PM 42.0020 -87.9460 140° Southeast 147 169 1,100 -780 Descending FlightAware
05:41PM 41.9880 -87.9300 140° Southeast 147 169 700 -960 Descending FlightAware